TimeEST,TemperatureF,Dew PointF,Humidity,Sea Level PressureIn,VisibilityMPH,Wind Direction,Wind SpeedMPH,Gust SpeedMPH,PrecipitationIn,Events,Conditions,WindDirDegrees,DateUTC
12:15 AM,35.8,32.2,87,30.06,5.0,ESE,3.5,-,N/A,,Mostly Cloudy,120,2012-12-20 05:15:00
12:35 AM,35.6,32.0,87,30.04,5.0,ESE,4.6,-,N/A,,Mostly Cloudy,110,2012-12-20 05:35:00
1:15 AM,35.8,32.2,87,30.04,5.0,SE,6.9,-,N/A,,Overcast,140,2012-12-20 06:15:00
1:35 AM,35.8,32.2,87,30.01,5.0,East,6.9,-,N/A,,Overcast,100,2012-12-20 06:35:00
1:55 AM,35.8,32.2,87,29.99,5.0,ESE,6.9,-,N/A,,Overcast,110,2012-12-20 06:55:00
2:35 AM,36.0,32.2,86,29.99,5.0,East,8.1,-,N/A,,Overcast,100,2012-12-20 07:35:00
2:55 AM,36.1,32.4,86,29.99,5.0,SE,8.1,-,N/A,,Overcast,130,2012-12-20 07:55:00
3:15 AM,35.4,32.2,88,29.98,4.0,ESE,9.2,-,N/A,Snow,Light Snow,110,2012-12-20 08:15:00
3:35 AM,34.7,32.2,91,29.96,3.0,East,8.1,-,N/A,Snow,Light Snow,100,2012-12-20 08:35:00
3:55 AM,34.7,32.5,92,29.93,2.5,East,9.2,-,N/A,Snow,Light Snow,90,2012-12-20 08:55:00
4:14 AM,34.7,32.9,93,29.90,4.0,East,10.4,-,N/A,,Overcast,90,2012-12-20 09:14:00
4:35 AM,35.6,33.8,93,29.87,5.0,East,12.7,17.3,N/A,,Overcast,80,2012-12-20 09:35:00
4:55 AM,36.1,33.8,91,29.85,5.0,ENE,11.5,-,N/A,,Overcast,70,2012-12-20 09:55:00
5:15 AM,36.7,34.2,91,29.90,5.0,ESE,5.8,-,N/A,,Overcast,110,2012-12-20 10:15:00
5:35 AM,36.7,34.2,91,29.89,5.0,Calm,Calm,-,N/A,,Overcast,0,2012-12-20 10:35:00
5:55 AM,36.9,34.7,92,29.88,5.0,East,5.8,-,N/A,,Overcast,90,2012-12-20 10:55:00
6:15 AM,38.1,35.1,89,29.85,7.0,East,13.8,-,N/A,,Overcast,100,2012-12-20 11:15:00
6:35 AM,38.7,34.9,86,29.84,7.0,ESE,13.8,20.7,N/A,,Overcast,110,2012-12-20 11:35:00
6:55 AM,38.8,34.7,85,29.81,7.0,East,15.0,21.9,N/A,,Overcast,90,2012-12-20 11:55:00
7:15 AM,39.0,34.7,84,29.78,7.0,East,15.0,18.4,N/A,,Overcast,90,2012-12-20 12:15:00
7:34 AM,38.8,34.7,85,29.73,7.0,East,15.0,19.6,N/A,,Overcast,80,2012-12-20 12:34:00
7:55 AM,38.7,34.7,86,29.72,7.0,East,13.8,19.6,N/A,,Overcast,90,2012-12-20 12:55:00
8:15 AM,38.7,35.2,87,29.69,4.0,East,13.8,24.2,N/A,,Unknown,90,2012-12-20 13:15:00
8:35 AM,38.7,35.4,88,29.69,7.0,East,16.1,23.0,N/A,,Overcast,100,2012-12-20 13:35:00
8:55 AM,38.8,35.6,88,29.67,7.0,East,16.1,20.7,N/A,,Overcast,100,2012-12-20 13:55:00
9:15 AM,39.2,35.4,86,29.65,7.0,East,16.1,21.9,N/A,,Overcast,100,2012-12-20 14:15:00
9:35 AM,39.6,35.2,85,29.62,7.0,East,17.3,24.2,N/A,,Overcast,90,2012-12-20 14:35:00
9:55 AM,40.1,34.7,81,29.62,10.0,East,18.4,25.3,N/A,,Overcast,100,2012-12-20 14:55:00
10:14 AM,40.1,34.3,80,29.59,10.0,East,16.1,24.2,N/A,,Overcast,100,2012-12-20 15:14:00
10:35 AM,40.1,34.5,80,29.60,4.0,East,12.7,24.2,N/A,,Unknown,100,2012-12-20 15:35:00
10:55 AM,40.1,35.1,82,29.58,3.0,ESE,13.8,-,N/A,,Unknown,110,2012-12-20 15:55:00
11:14 AM,40.1,35.6,84,29.56,4.0,East,15.0,24.2,N/A,,Unknown,100,2012-12-20 16:14:00
11:35 AM,39.7,35.8,86,29.52,2.5,East,21.9,28.8,N/A,,Unknown,100,2012-12-20 16:35:00
11:55 AM,39.7,36.1,87,29.51,2.5,ESE,17.3,28.8,N/A,,Unknown,110,2012-12-20 16:55:00
12:15 PM,39.7,36.5,88,29.48,3.0,ESE,19.6,29.9,N/A,,Unknown,110,2012-12-20 17:15:00
12:35 PM,40.1,36.7,88,29.45,3.0,ESE,18.4,26.5,N/A,,Unknown,110,2012-12-20 17:35:00
12:54 PM,40.1,37.0,89,29.41,3.0,ESE,23.0,31.1,N/A,,Unknown,110,2012-12-20 17:54:00
1:15 PM,40.3,37.4,89,29.38,5.0,ESE,23.0,33.4,N/A,,Overcast,110,2012-12-20 18:15:00
1:35 PM,41.0,37.6,88,29.33,5.0,ESE,23.0,29.9,N/A,,Overcast,110,2012-12-20 18:35:00
1:55 PM,41.0,38.7,91,29.30,7.0,ESE,21.9,31.1,N/A,,Overcast,120,2012-12-20 18:55:00
2:15 PM,41.4,39.2,92,29.28,10.0,ESE,20.7,31.1,N/A,,Overcast,120,2012-12-20 19:15:00
2:35 PM,41.9,39.4,91,29.25,10.0,ESE,20.7,32.2,N/A,,Overcast,120,2012-12-20 19:35:00
2:55 PM,42.8,39.7,89,29.24,10.0,SE,21.9,29.9,N/A,,Overcast,130,2012-12-20 19:55:00
3:15 PM,43.0,39.7,88,29.24,10.0,SE,13.8,26.5,N/A,,Overcast,130,2012-12-20 20:15:00
3:35 PM,43.5,40.1,88,29.24,10.0,SE,19.6,27.6,N/A,,Overcast,130,2012-12-20 20:35:00
3:55 PM,43.9,40.6,88,29.23,5.0,SE,18.4,25.3,N/A,Rain,Light Rain,140,2012-12-20 20:55:00
4:15 PM,44.1,41.2,90,29.22,4.0,SE,18.4,25.3,N/A,,Unknown,140,2012-12-20 21:15:00
4:35 PM,44.1,41.5,91,29.19,3.0,ESE,17.3,25.3,N/A,,Unknown,120,2012-12-20 21:35:00
4:55 PM,44.2,41.9,91,29.18,5.0,ESE,15.0,27.6,N/A,,Overcast,120,2012-12-20 21:55:00
5:15 PM,44.2,41.9,91,29.17,5.0,SE,10.4,24.2,N/A,,Overcast,130,2012-12-20 22:15:00
5:35 PM,44.6,41.9,90,29.16,4.0,ESE,9.2,-,N/A,,Unknown,120,2012-12-20 22:35:00
5:54 PM,44.8,42.1,90,29.16,7.0,ESE,12.7,18.4,N/A,Rain,Light Rain,110,2012-12-20 22:54:00
6:15 PM,44.8,42.3,91,29.15,5.0,ESE,13.8,19.6,N/A,Rain,Light Rain,120,2012-12-20 23:15:00
6:35 PM,44.6,42.3,91,29.13,10.0,East,10.4,16.1,N/A,,Overcast,100,2012-12-20 23:35:00
6:54 PM,44.6,42.3,91,29.12,5.0,East,10.4,-,N/A,Rain,Light Rain,100,2012-12-20 23:54:00
7:15 PM,45.0,42.8,92,29.12,7.0,SE,3.5,-,N/A,Rain,Light Rain,130,2012-12-21 00:15:00
7:34 PM,45.1,43.2,93,29.13,7.0,SSW,4.6,-,N/A,Rain,Light Rain,200,2012-12-21 00:34:00
7:55 PM,45.1,43.0,92,29.12,7.0,SSW,4.6,-,N/A,Rain,Light Rain,200,2012-12-21 00:55:00
8:15 PM,45.1,42.8,91,29.13,7.0,SSW,15.0,21.9,N/A,,Unknown,210,2012-12-21 01:15:00
8:34 PM,44.6,42.1,91,29.14,5.0,SSW,9.2,23.0,N/A,,Unknown,210,2012-12-21 01:34:00
8:55 PM,43.9,41.0,90,29.15,7.0,SSW,9.2,16.1,N/A,,Overcast,210,2012-12-21 01:55:00
9:15 PM,43.5,40.3,88,29.15,5.0,SSW,9.2,-,N/A,,Unknown,210,2012-12-21 02:15:00
9:35 PM,42.8,39.2,87,29.14,10.0,SSW,13.8,19.6,N/A,,Overcast,210,2012-12-21 02:35:00
9:55 PM,41.7,37.2,84,29.16,10.0,SSW,11.5,-,N/A,,Overcast,200,2012-12-21 02:55:00
10:14 PM,41.0,35.8,82,29.16,10.0,South,8.1,-,N/A,,Overcast,180,2012-12-21 03:14:00
10:35 PM,40.6,34.7,79,29.16,10.0,South,13.8,17.3,N/A,,Overcast,170,2012-12-21 03:35:00
10:55 PM,40.3,33.4,77,29.16,10.0,South,11.5,-,N/A,,Overcast,180,2012-12-21 03:55:00
11:14 PM,39.7,32.5,75,29.15,10.0,South,8.1,16.1,N/A,,Overcast,170,2012-12-21 04:14:00
11:35 PM,39.6,32.0,74,29.14,10.0,South,11.5,17.3,N/A,,Overcast,190,2012-12-21 04:35:00
11:55 PM,39.2,31.6,74,29.15,10.0,South,6.9,-,N/A,,Overcast,180,2012-12-21 04:55:00